Time,TemperatureF,DewpointF,PressureIn,WindDirection,WindDirectionDegrees,WindSpeedMPH,WindSpeedGustMPH,Humidity,HourlyPrecipIn,Conditions,Clouds,dailyrainin,SoftwareType,DateUTC
2013-03-01 00:00:00,28.0,24.9,29.80,East,90,9.0,25.0,88,0.00,,,-99.99,Weather View 32 v60,2013-03-01 05:00:00,
2013-03-01 00:05:00,28.0,25.2,29.80,East,90,5.0,25.0,89,0.00,,,-99.99,Weather View 32 v60,2013-03-01 05:05:00,
2013-03-01 00:10:00,28.0,24.9,29.80,ENE,67,7.0,25.0,88,0.00,,,-99.99,Weather View 32 v60,2013-03-01 05:10:00,
2013-03-01 00:15:00,28.0,24.9,29.80,NE,45,14.0,25.0,88,0.00,,,-99.99,Weather View 32 v60,2013-03-01 05:15:00,
2013-03-01 00:20:00,28.0,24.9,29.80,NNE,22,7.0,25.0,88,0.00,,,-99.99,Weather View 32 v60,2013-03-01 05:20:00,
2013-03-01 00:25:00,28.0,24.9,29.80,ENE,67,9.0,25.0,88,0.00,,,-99.99,Weather View 32 v60,2013-03-01 05:25:00,
2013-03-01 00:30:00,28.0,24.9,29.80,ENE,67,5.0,25.0,88,0.00,,,-99.99,Weather View 32 v60,2013-03-01 05:30:00,
2013-03-01 00:35:00,28.0,24.9,29.81,North,360,6.0,25.0,88,0.00,,,-99.99,Weather View 32 v60,2013-03-01 05:35:00,
2013-03-01 00:40:00,28.0,24.9,29.81,NE,45,9.0,25.0,88,0.00,,,-99.99,Weather View 32 v60,2013-03-01 05:40:00,
2013-03-01 00:45:00,28.0,24.9,29.80,SE,135,5.0,24.0,88,0.00,,,-99.99,Weather View 32 v60,2013-03-01 05:45:00,
2013-03-01 00:50:00,28.0,24.9,29.80,East,90,11.0,21.0,88,0.00,,,-99.99,Weather View 32 v60,2013-03-01 05:50:00,
2013-03-01 00:55:00,28.0,24.9,29.80,SSE,157,3.0,21.0,88,0.00,,,-99.99,Weather View 32 v60,2013-03-01 05:55:00,
2013-03-01 01:00:00,27.0,23.9,29.80,SE,135,5.0,21.0,88,0.00,,,-99.99,Weather View 32 v60,2013-03-01 06:00:00,
2013-03-01 01:05:00,28.0,24.9,29.80,NNE,22,10.0,21.0,88,0.00,,,-99.99,Weather View 32 v60,2013-03-01 06:05:00,
2013-03-01 01:10:00,27.0,23.9,29.80,NE,45,5.0,21.0,88,0.00,,,-99.99,Weather View 32 v60,2013-03-01 06:10:00,
2013-03-01 01:15:00,28.0,24.6,29.81,East,90,6.0,22.0,87,0.00,,,-99.99,Weather View 32 v60,2013-03-01 06:15:00,
2013-03-01 01:20:00,27.0,23.9,29.81,NE,45,5.0,22.0,88,0.00,,,-99.99,Weather View 32 v60,2013-03-01 06:20:00,
2013-03-01 01:25:00,28.0,24.6,29.81,SE,135,3.0,22.0,87,0.00,,,-99.99,Weather View 32 v60,2013-03-01 06:25:00,
2013-03-01 01:30:00,27.0,23.9,29.81,North,360,1.0,22.0,88,0.00,,,-99.99,Weather View 32 v60,2013-03-01 06:30:00,
2013-03-01 01:35:00,28.0,24.6,29.81,NNE,22,8.0,22.0,87,0.00,,,-99.99,Weather View 32 v60,2013-03-01 06:35:00,
2013-03-01 01:40:00,27.0,23.6,29.81,NE,45,3.0,22.0,87,0.00,,,-99.99,Weather View 32 v60,2013-03-01 06:40:00,
2013-03-01 01:45:00,28.0,24.9,29.81,SE,135,7.0,22.0,88,0.00,,,-99.99,Weather View 32 v60,2013-03-01 06:45:00,
2013-03-01 01:50:00,27.0,23.9,29.81,North,360,2.0,22.0,88,0.00,,,-99.99,Weather View 32 v60,2013-03-01 06:50:00,
2013-03-01 01:55:00,28.0,24.6,29.81,East,90,2.0,22.0,87,0.00,,,-99.99,Weather View 32 v60,2013-03-01 06:55:00,
2013-03-01 02:00:00,27.0,23.1,29.81,NE,45,3.0,22.0,85,0.00,,,-99.99,Weather View 32 v60,2013-03-01 07:00:00,
2013-03-01 02:05:00,27.0,23.1,29.81,East,90,3.0,22.0,85,0.00,,,-99.99,Weather View 32 v60,2013-03-01 07:05:00,
2013-03-01 02:10:00,27.0,23.1,29.81,NE,45,7.0,22.0,85,0.00,,,-99.99,Weather View 32 v60,2013-03-01 07:10:00,
2013-03-01 02:15:00,27.0,23.1,29.81,NE,45,5.0,22.0,85,0.00,,,-99.99,Weather View 32 v60,2013-03-01 07:15:00,
2013-03-01 02:20:00,27.0,23.1,29.81,NE,45,3.0,15.0,85,0.00,,,-99.99,Weather View 32 v60,2013-03-01 07:20:00,
2013-03-01 02:25:00,27.0,23.1,29.81,East,90,6.0,15.0,85,0.00,,,-99.99,Weather View 32 v60,2013-03-01 07:25:00,
2013-03-01 02:30:00,27.0,23.1,29.81,NNE,22,4.0,17.0,85,0.00,,,-99.99,Weather View 32 v60,2013-03-01 07:30:00,
2013-03-01 02:35:00,27.0,23.1,29.81,ESE,112,6.0,17.0,85,0.00,,,-99.99,Weather View 32 v60,2013-03-01 07:35:00,
2013-03-01 02:40:00,27.0,22.5,29.81,ENE,67,8.0,17.0,83,0.00,,,-99.99,Weather View 32 v60,2013-03-01 07:40:00,
2013-03-01 02:45:00,27.0,22.5,29.81,NE,45,12.0,17.0,83,0.00,,,-99.99,Weather View 32 v60,2013-03-01 07:45:00,
2013-03-01 02:50:00,27.0,22.5,29.81,East,90,10.0,18.0,83,0.00,,,-99.99,Weather View 32 v60,2013-03-01 07:50:00,
2013-03-01 02:55:00,27.0,22.5,29.81,East,90,10.0,18.0,83,0.00,,,-99.99,Weather View 32 v60,2013-03-01 07:55:00,
2013-03-01 03:00:00,27.0,23.1,29.81,East,90,1.0,18.0,85,0.00,,,-99.99,Weather View 32 v60,2013-03-01 08:00:00,
2013-03-01 03:05:00,27.0,22.8,29.81,East,90,5.0,18.0,84,0.00,,,-99.99,Weather View 32 v60,2013-03-01 08:05:00,
2013-03-01 03:10:00,27.0,22.8,29.81,NE,45,4.0,18.0,84,0.00,,,-99.99,Weather View 32 v60,2013-03-01 08:10:00,
2013-03-01 03:15:00,27.0,22.5,29.81,East,90,6.0,18.0,83,0.00,,,-99.99,Weather View 32 v60,2013-03-01 08:15:00,
2013-03-01 03:20:00,27.0,22.8,29.81,NE,45,11.0,18.0,84,0.00,,,-99.99,Weather View 32 v60,2013-03-01 08:20:00,
2013-03-01 03:25:00,27.0,22.8,29.81,ENE,67,4.0,19.0,84,0.00,,,-99.99,Weather View 32 v60,2013-03-01 08:25:00,
2013-03-01 03:30:00,27.0,23.1,29.81,East,90,3.0,19.0,85,0.00,,,-99.99,Weather View 32 v60,2013-03-01 08:30:00,
2013-03-01 03:35:00,27.0,22.8,29.81,North,360,5.0,19.0,84,0.00,,,-99.99,Weather View 32 v60,2013-03-01 08:35:00,
2013-03-01 03:40:00,27.0,22.8,29.81,NNE,22,2.0,19.0,84,0.00,,,-99.99,Weather View 32 v60,2013-03-01 08:40:00,
2013-03-01 03:45:00,27.0,22.5,29.82,ENE,67,6.0,19.0,83,0.00,,,-99.99,Weather View 32 v60,2013-03-01 08:45:00,
2013-03-01 03:50:00,27.0,22.8,29.82,North,360,5.0,19.0,84,0.00,,,-99.99,Weather View 32 v60,2013-03-01 08:50:00,
2013-03-01 03:55:00,27.0,22.5,29.82,ENE,67,5.0,19.0,83,0.00,,,-99.99,Weather View 32 v60,2013-03-01 08:55:00,
2013-03-01 04:00:00,27.0,22.5,29.82,NE,45,18.0,19.0,83,0.00,,,-99.99,Weather View 32 v60,2013-03-01 09:00:00,
2013-03-01 04:10:00,27.0,23.1,29.82,North,360,1.0,19.0,85,0.00,,,-99.99,Weather View 32 v60,2013-03-01 09:10:00,
2013-03-01 04:15:00,27.0,22.8,29.82,East,90,6.0,19.0,84,0.00,,,-99.99,Weather View 32 v60,2013-03-01 09:15:00,
2013-03-01 04:20:00,27.0,23.1,29.82,NNE,22,3.0,19.0,85,0.00,,,-99.99,Weather View 32 v60,2013-03-01 09:20:00,
2013-03-01 04:25:00,27.0,23.1,29.83,North,360,1.0,19.0,85,0.00,,,-99.99,Weather View 32 v60,2013-03-01 09:25:00,
2013-03-01 04:30:00,26.0,22.4,29.83,NE,45,3.0,19.0,86,0.00,,,-99.99,Weather View 32 v60,2013-03-01 09:30:00,
2013-03-01 04:35:00,27.0,22.8,29.83,NE,45,8.0,19.0,84,0.00,,,-99.99,Weather View 32 v60,2013-03-01 09:35:00,
2013-03-01 04:40:00,26.0,22.7,29.83,ESE,112,0.0,19.0,87,0.00,,,-99.99,Weather View 32 v60,2013-03-01 09:40:00,
2013-03-01 04:45:00,27.0,22.8,29.83,ESE,112,6.0,19.0,84,0.00,,,-99.99,Weather View 32 v60,2013-03-01 09:45:00,
2013-03-01 04:50:00,26.0,22.1,29.83,East,90,9.0,19.0,85,0.00,,,-99.99,Weather View 32 v60,2013-03-01 09:50:00,
2013-03-01 04:55:00,26.0,22.1,29.83,NE,45,8.0,19.0,85,0.00,,,-99.99,Weather View 32 v60,2013-03-01 09:55:00,
2013-03-01 05:00:00,26.0,22.1,29.83,East,90,10.0,19.0,85,0.00,,,-99.99,Weather View 32 v60,2013-03-01 10:00:00,
2013-03-01 05:05:00,26.0,22.7,29.84,North,360,1.0,19.0,87,0.00,,,-99.99,Weather View 32 v60,2013-03-01 10:05:00,
2013-03-01 05:10:00,27.0,22.5,29.82,NE,45,8.0,19.0,83,0.00,,,-99.99,Weather View 32 v60,2013-03-01 10:10:00,
2013-03-01 05:15:00,26.0,22.9,29.84,NNE,22,3.0,19.0,88,0.00,,,-99.99,Weather View 32 v60,2013-03-01 10:15:00,
2013-03-01 05:20:00,26.0,22.7,29.84,North,360,3.0,19.0,87,0.00,,,-99.99,Weather View 32 v60,2013-03-01 10:20:00,
2013-03-01 05:25:00,26.0,22.4,29.84,NNW,337,8.0,19.0,86,0.00,,,-99.99,Weather View 32 v60,2013-03-01 10:25:00,
2013-03-01 05:35:00,26.0,22.4,29.84,NE,45,7.0,19.0,86,0.00,,,-99.99,Weather View 32 v60,2013-03-01 10:35:00,
2013-03-01 05:40:00,26.0,22.4,29.84,NE,45,9.0,19.0,86,0.00,,,-99.99,Weather View 32 v60,2013-03-01 10:40:00,
2013-03-01 05:45:00,26.0,22.4,29.84,East,90,3.0,19.0,86,0.00,,,-99.99,Weather View 32 v60,2013-03-01 10:45:00,
2013-03-01 05:55:00,26.0,22.4,29.85,NE,45,8.0,19.0,86,0.00,,,-99.99,Weather View 32 v60,2013-03-01 10:55:00,
2013-03-01 06:05:00,26.0,22.7,29.85,NE,45,7.0,19.0,87,0.00,,,-99.99,Weather View 32 v60,2013-03-01 11:05:00,
2013-03-01 06:10:00,25.0,21.7,29.85,East,90,8.0,19.0,87,0.00,,,-99.99,Weather View 32 v60,2013-03-01 11:10:00,
2013-03-01 06:15:00,26.0,22.9,29.85,North,360,3.0,19.0,88,0.00,,,-99.99,Weather View 32 v60,2013-03-01 11:15:00,
2013-03-01 06:20:00,25.0,22.0,29.85,NNW,337,4.0,19.0,88,0.00,,,-99.99,Weather View 32 v60,2013-03-01 11:20:00,
2013-03-01 06:25:00,25.0,21.7,29.85,NE,45,6.0,19.0,87,0.00,,,-99.99,Weather View 32 v60,2013-03-01 11:25:00,
2013-03-01 06:30:00,25.0,21.7,29.85,East,90,9.0,19.0,87,0.00,,,-99.99,Weather View 32 v60,2013-03-01 11:30:00,
2013-03-01 06:35:00,26.0,22.4,29.84,NE,45,9.0,19.0,86,0.00,,,-99.99,Weather View 32 v60,2013-03-01 11:35:00,
2013-03-01 06:40:00,25.0,22.0,29.86,East,90,6.0,19.0,88,0.00,,,-99.99,Weather View 32 v60,2013-03-01 11:40:00,
2013-03-01 06:45:00,25.0,21.7,29.87,SE,135,6.0,19.0,87,0.00,,,-99.99,Weather View 32 v60,2013-03-01 11:45:00,
2013-03-01 06:50:00,25.0,21.7,29.87,NE,45,6.0,18.0,87,0.00,,,-99.99,Weather View 32 v60,2013-03-01 11:50:00,
2013-03-01 06:55:00,25.0,21.7,29.87,ENE,67,7.0,18.0,87,0.00,,,-99.99,Weather View 32 v60,2013-03-01 11:55:00,
2013-03-01 07:05:00,26.0,22.9,29.85,NE,45,4.0,19.0,88,0.00,,,-99.99,Weather View 32 v60,2013-03-01 12:05:00,
2013-03-01 07:10:00,26.0,22.7,29.87,North,360,3.0,18.0,87,0.00,,,-99.99,Weather View 32 v60,2013-03-01 12:10:00,
2013-03-01 07:25:00,26.0,21.8,29.87,North,360,5.0,18.0,84,0.00,,,-99.99,Weather View 32 v60,2013-03-01 12:25:00,
2013-03-01 07:30:00,27.0,22.5,29.87,North,360,5.0,18.0,83,0.00,,,-99.99,Weather View 32 v60,2013-03-01 12:30:00,
2013-03-01 07:40:00,25.0,21.7,29.86,ENE,67,8.0,19.0,87,0.00,,,-99.99,Weather View 32 v60,2013-03-01 12:40:00,
2013-03-01 07:45:00,27.0,22.2,29.86,NE,45,10.0,17.0,82,0.00,,,-99.99,Weather View 32 v60,2013-03-01 12:45:00,
2013-03-01 08:00:00,26.0,21.5,29.87,North,360,10.0,16.0,83,0.00,,,-99.99,Weather View 32 v60,2013-03-01 13:00:00,
2013-03-01 08:05:00,25.0,22.0,29.87,NE,45,3.0,18.0,88,0.00,,,-99.99,Weather View 32 v60,2013-03-01 13:05:00,
2013-03-01 08:10:00,26.0,22.7,29.87,SE,135,3.0,18.0,87,0.00,,,-99.99,Weather View 32 v60,2013-03-01 13:10:00,
2013-03-01 08:20:00,26.0,22.4,29.87,ENE,67,5.0,18.0,86,0.00,,,-99.99,Weather View 32 v60,2013-03-01 13:20:00,
2013-03-01 08:25:00,26.0,22.4,29.87,East,90,7.0,18.0,86,0.00,,,-99.99,Weather View 32 v60,2013-03-01 13:25:00,
2013-03-01 08:30:00,27.0,21.7,29.87,ENE,67,7.0,16.0,80,0.00,,,-99.99,Weather View 32 v60,2013-03-01 13:30:00,
2013-03-01 08:35:00,27.0,21.7,29.87,NE,45,8.0,22.0,80,0.00,,,-99.99,Weather View 32 v60,2013-03-01 13:35:00,
2013-03-01 08:40:00,27.0,22.2,29.86,ESE,112,4.0,18.0,82,0.00,,,-99.99,Weather View 32 v60,2013-03-01 13:40:00,
2013-03-01 08:45:00,28.0,22.6,29.87,NE,45,7.0,22.0,80,0.00,,,-99.99,Weather View 32 v60,2013-03-01 13:45:00,
2013-03-01 08:50:00,27.0,21.4,29.87,NNE,22,13.0,22.0,79,0.00,,,-99.99,Weather View 32 v60,2013-03-01 13:50:00,
2013-03-01 08:55:00,27.0,22.2,29.86,NNE,22,7.0,17.0,82,0.00,,,-99.99,Weather View 32 v60,2013-03-01 13:55:00,
2013-03-01 09:00:00,27.0,21.9,29.87,East,90,10.0,17.0,81,0.00,,,-99.99,Weather View 32 v60,2013-03-01 14:00:00,
2013-03-01 09:05:00,26.0,21.3,29.87,NE,45,13.0,22.0,82,0.00,,,-99.99,Weather View 32 v60,2013-03-01 14:05:00,
2013-03-01 09:10:00,27.0,22.2,29.87,ENE,67,9.0,22.0,82,0.00,,,-99.99,Weather View 32 v60,2013-03-01 14:10:00,
2013-03-01 09:15:00,28.0,22.0,29.87,East,90,5.0,16.0,78,0.00,,,-99.99,Weather View 32 v60,2013-03-01 14:15:00,
2013-03-01 09:20:00,27.0,21.7,29.87,ENE,67,10.0,16.0,80,0.00,,,-99.99,Weather View 32 v60,2013-03-01 14:20:00,
2013-03-01 09:25:00,27.0,21.7,29.87,ENE,67,15.0,22.0,80,0.00,,,-99.99,Weather View 32 v60,2013-03-01 14:25:00,
2013-03-01 09:30:00,27.0,21.7,29.87,ENE,67,10.0,22.0,80,0.00,,,-99.99,Weather View 32 v60,2013-03-01 14:30:00,
2013-03-01 09:35:00,29.0,23.0,29.88,ESE,112,1.0,19.0,78,0.00,,,-99.99,Weather View 32 v60,2013-03-01 14:35:00,
2013-03-01 09:45:00,28.0,22.0,29.87,North,360,4.0,19.0,78,0.00,,,-99.99,Weather View 32 v60,2013-03-01 14:45:00,
2013-03-01 09:50:00,27.0,21.1,29.87,NE,45,10.0,19.0,78,0.00,,,-99.99,Weather View 32 v60,2013-03-01 14:50:00,
2013-03-01 09:55:00,28.0,22.0,29.87,NE,45,10.0,19.0,78,0.00,,,-99.99,Weather View 32 v60,2013-03-01 14:55:00,
2013-03-01 10:05:00,27.0,21.1,29.88,ENE,67,10.0,19.0,78,0.00,,,-99.99,Weather View 32 v60,2013-03-01 15:05:00,
2013-03-01 10:15:00,28.0,21.7,29.88,East,90,10.0,19.0,77,0.00,,,-99.99,Weather View 32 v60,2013-03-01 15:15:00,
2013-03-01 10:30:00,30.0,22.4,29.88,NE,45,8.0,19.0,73,0.01,,,-99.99,Weather View 32 v60,2013-03-01 15:30:00,
2013-03-01 10:35:00,28.0,21.1,29.87,NE,45,15.0,19.0,75,0.01,,,-99.99,Weather View 32 v60,2013-03-01 15:35:00,
2013-03-01 10:40:00,28.0,21.7,29.87,NE,45,9.0,20.0,77,0.01,,,-99.99,Weather View 32 v60,2013-03-01 15:40:00,
2013-03-01 10:45:00,28.0,22.0,29.88,ENE,67,4.0,19.0,78,0.00,,,-99.99,Weather View 32 v60,2013-03-01 15:45:00,
2013-03-01 10:50:00,31.0,23.0,29.88,ENE,67,13.0,20.0,72,0.01,,,-99.99,Weather View 32 v60,2013-03-01 15:50:00,
2013-03-01 10:55:00,31.0,23.7,29.89,ESE,112,1.0,20.0,74,0.02,,,-99.99,Weather View 32 v60,2013-03-01 15:55:00,
2013-03-01 11:00:00,32.0,24.3,29.89,SE,135,5.0,20.0,73,0.02,,,-99.99,Weather View 32 v60,2013-03-01 16:00:00,
2013-03-01 11:05:00,27.0,21.1,29.87,NE,45,13.0,19.0,78,0.00,,,-99.99,Weather View 32 v60,2013-03-01 16:05:00,
2013-03-01 11:10:00,30.0,22.4,29.88,SE,135,6.0,20.0,73,0.02,,,-99.99,Weather View 32 v60,2013-03-01 16:10:00,
2013-03-01 11:15:00,28.0,22.0,29.88,NE,45,4.0,19.0,78,0.00,,,-99.99,Weather View 32 v60,2013-03-01 16:15:00,
2013-03-01 11:20:00,30.0,23.0,29.89,East,90,3.0,20.0,75,0.02,,,-99.99,Weather View 32 v60,2013-03-01 16:20:00,
2013-03-01 11:25:00,30.0,23.7,29.88,SSE,157,2.0,19.0,77,0.00,,,-99.99,Weather View 32 v60,2013-03-01 16:25:00,
2013-03-01 11:30:00,32.0,23.0,29.88,NE,45,7.0,19.0,69,0.01,,,-99.99,Weather View 32 v60,2013-03-01 16:30:00,
2013-03-01 11:35:00,29.0,21.8,29.89,ENE,67,13.0,20.0,74,0.02,,,-99.99,Weather View 32 v60,2013-03-01 16:35:00,
2013-03-01 11:45:00,30.0,23.0,29.89,South,180,3.0,19.0,75,0.02,,,-99.99,Weather View 32 v60,2013-03-01 16:45:00,
2013-03-01 11:50:00,28.0,21.7,29.89,NE,45,5.0,19.0,77,0.02,,,-99.99,Weather View 32 v60,2013-03-01 16:50:00,
2013-03-01 12:05:00,29.0,22.4,29.89,East,90,7.0,19.0,76,0.01,,,-99.99,Weather View 32 v60,2013-03-01 17:05:00,
2013-03-01 12:10:00,28.0,21.4,29.89,ESE,112,10.0,19.0,76,0.02,,,-99.99,Weather View 32 v60,2013-03-01 17:10:00,
2013-03-01 12:15:00,28.0,22.0,29.89,NE,45,10.0,19.0,78,0.02,,,-99.99,Weather View 32 v60,2013-03-01 17:15:00,
2013-03-01 12:25:00,28.0,22.6,29.89,ENE,67,4.0,19.0,80,0.02,,,-99.99,Weather View 32 v60,2013-03-01 17:25:00,
2013-03-01 12:30:00,28.0,22.6,29.89,East,90,3.0,19.0,80,0.01,,,-99.99,Weather View 32 v60,2013-03-01 17:30:00,
2013-03-01 12:35:00,27.0,21.7,29.89,East,90,7.0,19.0,80,0.01,,,-99.99,Weather View 32 v60,2013-03-01 17:35:00,
2013-03-01 12:45:00,28.0,22.0,29.89,SE,135,4.0,19.0,78,0.02,,,-99.99,Weather View 32 v60,2013-03-01 17:45:00,
2013-03-01 12:55:00,28.0,22.0,29.88,ENE,67,5.0,18.0,78,0.02,,,-99.99,Weather View 32 v60,2013-03-01 17:55:00,
2013-03-01 13:00:00,29.0,22.4,29.89,East,90,4.0,19.0,76,0.01,,,-99.99,Weather View 32 v60,2013-03-01 18:00:00,
2013-03-01 13:05:00,29.0,22.1,29.89,East,90,8.0,19.0,75,0.01,,,-99.99,Weather View 32 v60,2013-03-01 18:05:00,
2013-03-01 13:10:00,30.0,23.0,29.87,ENE,67,3.0,18.0,75,0.01,,,-99.99,Weather View 32 v60,2013-03-01 18:10:00,
2013-03-01 13:15:00,29.0,22.7,29.87,East,90,10.0,18.0,77,0.01,,,-99.99,Weather View 32 v60,2013-03-01 18:15:00,
2013-03-01 13:20:00,30.0,23.0,29.87,SE,135,4.0,21.0,75,0.01,,,-99.99,Weather View 32 v60,2013-03-01 18:20:00,
2013-03-01 13:25:00,27.0,21.9,29.89,ENE,67,10.0,19.0,81,0.02,,,-99.99,Weather View 32 v60,2013-03-01 18:25:00,
2013-03-01 13:30:00,29.0,21.4,29.87,NE,45,10.0,21.0,73,0.02,,,-99.99,Weather View 32 v60,2013-03-01 18:30:00,
2013-03-01 13:35:00,29.0,21.4,29.87,East,90,7.0,21.0,73,0.02,,,-99.99,Weather View 32 v60,2013-03-01 18:35:00,
2013-03-01 13:40:00,28.0,21.1,29.87,NE,45,6.0,21.0,75,0.02,,,-99.99,Weather View 32 v60,2013-03-01 18:40:00,
2013-03-01 13:45:00,27.0,21.4,29.89,North,360,6.0,18.0,79,0.01,,,-99.99,Weather View 32 v60,2013-03-01 18:45:00,
2013-03-01 13:50:00,27.0,21.4,29.88,NNE,22,3.0,18.0,79,0.01,,,-99.99,Weather View 32 v60,2013-03-01 18:50:00,
2013-03-01 13:55:00,27.0,21.7,29.88,SE,135,4.0,18.0,80,0.02,,,-99.99,Weather View 32 v60,2013-03-01 18:55:00,
2013-03-01 14:10:00,30.0,21.7,29.87,East,90,5.0,21.0,71,0.02,,,-99.99,Weather View 32 v60,2013-03-01 19:10:00,
2013-03-01 14:15:00,29.0,21.1,29.86,NE,45,10.0,21.0,72,0.02,,,-99.99,Weather View 32 v60,2013-03-01 19:15:00,
2013-03-01 14:20:00,29.0,22.1,29.86,NE,45,10.0,18.0,75,0.02,,,-99.99,Weather View 32 v60,2013-03-01 19:20:00,
2013-03-01 14:25:00,30.0,22.4,29.87,SE,135,0.0,18.0,73,0.01,,,-99.99,Weather View 32 v60,2013-03-01 19:25:00,
2013-03-01 14:30:00,30.0,21.7,29.87,NE,45,7.0,18.0,71,0.01,,,-99.99,Weather View 32 v60,2013-03-01 19:30:00,
2013-03-01 14:35:00,31.0,23.0,29.86,SE,135,3.0,18.0,72,0.01,,,-99.99,Weather View 32 v60,2013-03-01 19:35:00,
2013-03-01 14:40:00,31.0,23.0,29.86,SE,135,4.0,18.0,72,0.01,,,-99.99,Weather View 32 v60,2013-03-01 19:40:00,
2013-03-01 14:45:00,31.0,22.7,29.86,NE,45,10.0,16.0,71,0.01,,,-99.99,Weather View 32 v60,2013-03-01 19:45:00,
2013-03-01 14:55:00,29.0,22.1,29.87,NE,45,8.0,21.0,75,0.01,,,-99.99,Weather View 32 v60,2013-03-01 19:55:00,
2013-03-01 15:00:00,30.0,21.4,29.87,NE,45,6.0,21.0,70,0.01,,,-99.99,Weather View 32 v60,2013-03-01 20:00:00,
2013-03-01 15:05:00,30.0,22.4,29.87,East,90,6.0,21.0,73,0.02,,,-99.99,Weather View 32 v60,2013-03-01 20:05:00,
2013-03-01 15:10:00,30.0,22.1,29.87,North,360,5.0,21.0,72,0.02,,,-99.99,Weather View 32 v60,2013-03-01 20:10:00,
2013-03-01 15:15:00,27.0,23.1,29.86,NE,45,7.0,25.0,85,0.01,,,-99.99,Weather View 32 v60,2013-03-01 20:15:00,
2013-03-01 15:35:00,27.0,23.4,29.87,North,360,10.0,25.0,86,0.01,,,-99.99,Weather View 32 v60,2013-03-01 20:35:00,
2013-03-01 15:40:00,27.0,22.2,29.87,East,90,5.0,25.0,82,0.01,,,-99.99,Weather View 32 v60,2013-03-01 20:40:00,
2013-03-01 15:55:00,31.0,22.4,29.86,NE,45,7.0,16.0,70,0.02,,,-99.99,Weather View 32 v60,2013-03-01 20:55:00,
2013-03-01 16:00:00,31.0,23.4,29.87,North,360,1.0,16.0,73,0.02,,,-99.99,Weather View 32 v60,2013-03-01 21:00:00,
2013-03-01 16:05:00,31.0,22.4,29.87,NE,45,10.0,16.0,70,0.01,,,-99.99,Weather View 32 v60,2013-03-01 21:05:00,
2013-03-01 16:10:00,29.0,23.9,29.87,North,360,10.0,25.0,81,0.01,,,-99.99,Weather View 32 v60,2013-03-01 21:10:00,
2013-03-01 16:15:00,27.0,22.5,29.87,NNE,22,13.0,25.0,83,0.01,,,-99.99,Weather View 32 v60,2013-03-01 21:15:00,
2013-03-01 16:25:00,27.0,23.4,29.86,North,360,12.0,25.0,86,0.01,,,-99.99,Weather View 32 v60,2013-03-01 21:25:00,
2013-03-01 16:30:00,27.0,23.6,29.86,East,90,7.0,25.0,87,0.01,,,-99.99,Weather View 32 v60,2013-03-01 21:30:00,
2013-03-01 16:35:00,27.0,23.6,29.86,NNE,22,8.0,25.0,87,0.01,,,-99.99,Weather View 32 v60,2013-03-01 21:35:00,
2013-03-01 16:40:00,27.0,21.4,29.89,East,90,6.0,10.0,79,0.00,,,-99.99,Weather View 32 v60,2013-03-01 21:40:00,
2013-03-01 16:45:00,27.0,21.4,29.89,ENE,67,3.0,10.0,79,0.00,,,-99.99,Weather View 32 v60,2013-03-01 21:45:00,
2013-03-01 16:50:00,28.0,22.0,29.87,NE,45,3.0,25.0,78,0.01,,,-99.99,Weather View 32 v60,2013-03-01 21:50:00,
2013-03-01 16:55:00,27.0,21.1,29.87,NE,45,7.0,25.0,78,0.00,,,-99.99,Weather View 32 v60,2013-03-01 21:55:00,
2013-03-01 17:00:00,28.0,21.7,29.87,SE,135,5.0,25.0,77,0.00,,,-99.99,Weather View 32 v60,2013-03-01 22:00:00,
2013-03-01 17:05:00,26.0,21.0,29.90,East,90,2.0,10.0,81,0.00,,,-99.99,Weather View 32 v60,2013-03-01 22:05:00,
2013-03-01 17:10:00,28.0,22.0,29.88,NE,45,5.0,25.0,78,0.00,,,-99.99,Weather View 32 v60,2013-03-01 22:10:00,
2013-03-01 17:15:00,27.0,21.7,29.88,North,360,2.0,25.0,80,0.00,,,-99.99,Weather View 32 v60,2013-03-01 22:15:00,
2013-03-01 17:25:00,27.0,21.4,29.88,NE,45,4.0,25.0,79,0.00,,,-99.99,Weather View 32 v60,2013-03-01 22:25:00,
2013-03-01 17:30:00,27.0,21.4,29.89,NNE,22,2.0,25.0,79,0.00,,,-99.99,Weather View 32 v60,2013-03-01 22:30:00,
2013-03-01 17:35:00,27.0,21.7,29.89,NE,45,2.0,16.0,80,0.00,,,-99.99,Weather View 32 v60,2013-03-01 22:35:00,
2013-03-01 17:40:00,25.0,20.6,29.91,East,90,1.0,8.0,83,0.00,,,-99.99,Weather View 32 v60,2013-03-01 22:40:00,
2013-03-01 17:45:00,27.0,21.4,29.89,East,90,6.0,10.0,79,0.00,,,-99.99,Weather View 32 v60,2013-03-01 22:45:00,
2013-03-01 17:50:00,25.0,20.6,29.91,East,90,3.0,8.0,83,0.00,,,-99.99,Weather View 32 v60,2013-03-01 22:50:00,
2013-03-01 17:55:00,27.0,21.7,29.89,SE,135,0.0,10.0,80,0.00,,,-99.99,Weather View 32 v60,2013-03-01 22:55:00,
2013-03-01 18:00:00,27.0,21.7,29.89,North,360,0.0,10.0,80,0.00,,,-99.99,Weather View 32 v60,2013-03-01 23:00:00,
2013-03-01 18:05:00,25.0,20.6,29.91,SE,135,2.0,8.0,83,0.00,,,-99.99,Weather View 32 v60,2013-03-01 23:05:00,
2013-03-01 18:10:00,24.0,19.9,29.91,East,90,2.0,8.0,84,0.00,,,-99.99,Weather View 32 v60,2013-03-01 23:10:00,
2013-03-01 18:15:00,24.0,19.9,29.91,East,90,5.0,8.0,84,0.00,,,-99.99,Weather View 32 v60,2013-03-01 23:15:00,
2013-03-01 18:20:00,26.0,21.0,29.91,East,90,1.0,10.0,81,0.00,,,-99.99,Weather View 32 v60,2013-03-01 23:20:00,
2013-03-01 18:25:00,26.0,21.3,29.91,East,90,2.0,10.0,82,0.00,,,-99.99,Weather View 32 v60,2013-03-01 23:25:00,
2013-03-01 18:30:00,26.0,21.0,29.90,East,90,5.0,10.0,81,0.00,,,-99.99,Weather View 32 v60,2013-03-01 23:30:00,
2013-03-01 18:35:00,25.0,20.6,29.90,East,90,3.0,10.0,83,0.00,,,-99.99,Weather View 32 v60,2013-03-01 23:35:00,
2013-03-01 18:40:00,25.0,21.4,29.91,NE,45,0.0,10.0,86,0.00,,,-99.99,Weather View 32 v60,2013-03-01 23:40:00,
2013-03-01 18:45:00,25.0,20.6,29.91,East,90,1.0,8.0,83,0.00,,,-99.99,Weather View 32 v60,2013-03-01 23:45:00,
2013-03-01 18:50:00,24.0,20.1,29.92,ESE,112,4.0,8.0,85,0.00,,,-99.99,Weather View 32 v60,2013-03-01 23:50:00,
2013-03-01 19:30:00,24.0,19.9,29.92,SE,135,5.0,8.0,84,0.00,,,-99.99,Weather View 32 v60,2013-03-02 00:30:00,
2013-03-01 19:35:00,24.0,19.6,29.93,SE,135,3.0,8.0,83,0.00,,,-99.99,Weather View 32 v60,2013-03-02 00:35:00,
2013-03-01 19:40:00,24.0,19.9,29.92,SE,135,4.0,8.0,84,0.00,,,-99.99,Weather View 32 v60,2013-03-02 00:40:00,
2013-03-01 19:45:00,25.0,20.0,29.93,East,90,5.0,8.0,81,0.00,,,-99.99,Weather View 32 v60,2013-03-02 00:45:00,
2013-03-01 19:55:00,24.0,19.9,29.94,SE,135,4.0,10.0,84,0.00,,,-99.99,Weather View 32 v60,2013-03-02 00:55:00,
2013-03-01 20:00:00,24.0,20.1,29.93,SE,135,4.0,8.0,85,0.00,,,-99.99,Weather View 32 v60,2013-03-02 01:00:00,
2013-03-01 20:05:00,23.0,19.4,29.93,SE,135,3.0,8.0,86,0.00,,,-99.99,Weather View 32 v60,2013-03-02 01:05:00,
2013-03-01 20:10:00,24.0,20.1,29.93,SE,135,3.0,8.0,85,0.00,,,-99.99,Weather View 32 v60,2013-03-02 01:10:00,
2013-03-01 20:15:00,23.0,19.7,29.93,SE,135,3.0,8.0,87,0.00,,,-99.99,Weather View 32 v60,2013-03-02 01:15:00,
2013-03-01 20:20:00,24.0,20.1,29.93,East,90,4.0,8.0,85,0.00,,,-99.99,Weather View 32 v60,2013-03-02 01:20:00,
2013-03-01 20:25:00,24.0,19.9,29.93,East,90,3.0,7.0,84,0.00,,,-99.99,Weather View 32 v60,2013-03-02 01:25:00,
2013-03-01 20:30:00,24.0,19.9,29.93,East,90,5.0,7.0,84,0.00,,,-99.99,Weather View 32 v60,2013-03-02 01:30:00,
2013-03-01 20:35:00,24.0,19.9,29.93,East,90,6.0,8.0,84,0.00,,,-99.99,Weather View 32 v60,2013-03-02 01:35:00,
2013-03-01 20:40:00,23.0,19.7,29.95,NE,45,6.0,10.0,87,0.00,,,-99.99,Weather View 32 v60,2013-03-02 01:40:00,
2013-03-01 20:45:00,25.0,20.0,29.93,East,90,5.0,8.0,81,0.00,,,-99.99,Weather View 32 v60,2013-03-02 01:45:00,
2013-03-01 20:55:00,25.0,20.0,29.93,East,90,7.0,10.0,81,0.00,,,-99.99,Weather View 32 v60,2013-03-02 01:55:00,
2013-03-01 21:20:00,22.0,19.8,29.96,NE,45,8.0,16.0,91,0.00,,,-99.99,Weather View 32 v60,2013-03-02 02:20:00,
2013-03-01 21:25:00,22.0,19.8,29.96,NNE,22,8.0,16.0,91,0.00,,,-99.99,Weather View 32 v60,2013-03-02 02:25:00,
2013-03-01 21:30:00,21.0,19.3,29.96,East,90,7.0,19.0,93,0.00,,,-99.99,Weather View 32 v60,2013-03-02 02:30:00,
2013-03-01 21:35:00,21.0,19.3,29.97,NE,45,6.0,19.0,93,0.00,,,-99.99,Weather View 32 v60,2013-03-02 02:35:00,
2013-03-01 21:40:00,21.0,19.3,29.97,East,90,9.0,19.0,93,0.00,,,-99.99,Weather View 32 v60,2013-03-02 02:40:00,
2013-03-01 21:45:00,23.0,19.7,29.95,NE,45,6.0,10.0,87,0.00,,,-99.99,Weather View 32 v60,2013-03-02 02:45:00,
2013-03-01 21:50:00,23.0,20.0,29.95,NE,45,8.0,10.0,88,0.00,,,-99.99,Weather View 32 v60,2013-03-02 02:50:00,
2013-03-01 21:55:00,23.0,20.0,29.95,NE,45,8.0,15.0,88,0.00,,,-99.99,Weather View 32 v60,2013-03-02 02:55:00,
2013-03-01 22:00:00,23.0,20.2,29.96,WNW,292,2.0,16.0,89,0.00,,,-99.99,Weather View 32 v60,2013-03-02 03:00:00,
2013-03-01 22:05:00,22.0,19.3,29.96,ENE,67,11.0,16.0,89,0.00,,,-99.99,Weather View 32 v60,2013-03-02 03:05:00,
2013-03-01 22:10:00,22.0,19.5,29.96,NE,45,5.0,16.0,90,0.00,,,-99.99,Weather View 32 v60,2013-03-02 03:10:00,
2013-03-01 22:15:00,22.0,19.5,29.96,North,360,5.0,16.0,90,0.00,,,-99.99,Weather View 32 v60,2013-03-02 03:15:00,
2013-03-01 22:20:00,22.0,19.5,29.96,NE,45,10.0,16.0,90,0.00,,,-99.99,Weather View 32 v60,2013-03-02 03:20:00,
2013-03-01 22:40:00,20.0,18.8,29.96,ENE,67,4.0,15.0,95,0.00,,,-99.99,Weather View 32 v60,2013-03-02 03:40:00,
2013-03-01 22:45:00,21.0,19.3,29.97,East,90,9.0,19.0,93,0.00,,,-99.99,Weather View 32 v60,2013-03-02 03:45:00,
2013-03-01 22:50:00,21.0,19.3,29.97,SE,135,3.0,19.0,93,0.00,,,-99.99,Weather View 32 v60,2013-03-02 03:50:00,
2013-03-01 22:55:00,20.0,19.0,29.96,East,90,8.0,15.0,96,0.00,,,-99.99,Weather View 32 v60,2013-03-02 03:55:00,
2013-03-01 23:00:00,21.0,19.3,29.96,East,90,10.0,19.0,93,0.00,,,-99.99,Weather View 32 v60,2013-03-02 04:00:00,
2013-03-01 23:05:00,21.0,19.3,29.96,ENE,67,5.0,19.0,93,0.00,,,-99.99,Weather View 32 v60,2013-03-02 04:05:00,
2013-03-01 23:10:00,19.0,18.3,29.96,East,90,8.0,15.0,97,0.00,,,-99.99,Weather View 32 v60,2013-03-02 04:10:00,
2013-03-01 23:15:00,19.0,18.3,29.96,NE,45,5.0,15.0,97,0.00,,,-99.99,Weather View 32 v60,2013-03-02 04:15:00,
2013-03-01 23:20:00,19.0,18.3,29.96,East,90,4.0,15.0,97,0.00,,,-99.99,Weather View 32 v60,2013-03-02 04:20:00,
2013-03-01 23:25:00,19.0,18.5,29.95,East,90,7.0,13.0,98,0.00,,,-99.99,Weather View 32 v60,2013-03-02 04:25:00,
2013-03-01 23:30:00,20.0,18.8,29.97,ESE,112,3.0,19.0,95,0.00,,,-99.99,Weather View 32 v60,2013-03-02 04:30:00,
2013-03-01 23:35:00,20.0,18.8,29.97,East,90,6.0,17.0,95,0.00,,,-99.99,Weather View 32 v60,2013-03-02 04:35:00,
2013-03-01 23:40:00,20.0,18.8,29.96,ESE,112,10.0,15.0,95,0.00,,,-99.99,Weather View 32 v60,2013-03-02 04:40:00,
2013-03-01 23:45:00,20.0,18.8,29.96,ENE,67,4.0,15.0,95,0.00,,,-99.99,Weather View 32 v60,2013-03-02 04:45:00,
2013-03-01 23:50:00,19.0,18.8,29.95,North,360,4.0,13.0,99,0.00,,,-99.99,Weather View 32 v60,2013-03-02 04:50:00,
2013-03-01 23:55:00,19.0,18.3,29.96,SE,135,5.0,15.0,97,0.00,,,-99.99,Weather View 32 v60,2013-03-02 04:55:00,